Date,TemperatureHighF,TemperatureAvgF,TemperatureLowF,DewpointHighF,DewpointAvgF,DewpointLowF,HumidityHigh,HumidityAvg,HumidityLow,PressureMaxIn,PressureMinIn,WindSpeedMaxMPH,WindSpeedAvgMPH,GustSpeedMaxMPH,PrecipitationSumIn
2013-1-1,34.4,23.1,5.4,27.8,17.5,2.3,93,80,60,30.32,30.12,33,6,33,0.00
2013-1-2,30.9,26.8,21.9,26.6,21.3,16.6,91,80,63,30.43,30.11,37,15,37,0.01
2013-1-3,33.2,20.6,3.7,22.6,13.9,0.5,88,76,58,30.48,30.25,17,3,18,0.00
2013-1-4,38.9,24.1,12.5,27.0,14.2,3.4,77,66,49,30.27,30.11,9,2,9,0.00
2013-1-5,40.5,30.9,17.9,25.5,20.0,10.4,81,64,49,30.31,30.10,35,8,35,0.00
2013-1-6,55.1,29.4,15.7,30.0,18.8,9.8,81,65,32,30.29,29.83,29,4,29,0.00
2013-1-7,45.6,31.3,19.8,29.1,22.0,15.0,85,69,48,30.09,29.71,19,3,19,0.00
2013-1-8,47.2,36.5,25.4,33.6,27.1,19.2,87,69,49,30.16,29.65,29,7,29,0.00
2013-1-9,58.9,39.4,19.2,34.0,26.6,15.9,90,63,34,30.18,29.79,27,7,27,0.00
2013-1-10,50.7,41.0,31.6,29.2,25.4,22.6,88,55,36,29.79,29.41,40,13,40,0.00
2013-1-11,31.6,17.6,7.9,29.3,13.5,0.2,93,84,68,30.05,29.49,41,19,41,0.00
2013-1-12,11.3,9.4,6.7,6.1,3.1,0.9,82,75,65,30.35,30.03,38,14,38,0.00
2013-1-13,19.7,11.3,2.1,9.6,3.9,-3.3,87,72,56,30.41,30.29,25,3,25,0.00
2013-1-14,23.2,10.4,-0.6,10.8,2.4,-6.1,81,70,53,30.43,30.27,20,3,20,0.00
2013-1-15,43.7,25.6,0.3,32.8,15.9,-4.7,87,67,56,30.28,29.90,37,8,37,0.00
2013-1-16,49.4,42.8,34.2,32.0,26.1,23.7,66,52,39,30.27,29.93,37,8,37,0.00
2013-1-17,48.5,36.9,22.2,32.5,24.5,17.3,83,61,45,30.44,30.02,19,4,19,0.00
2013-1-18,60.4,42.2,29.7,26.5,21.3,17.9,69,45,24,30.02,29.84,22,3,22,0.00
2013-1-19,43.9,35.7,21.0,27.1,22.8,17.5,87,61,43,30.30,29.86,29,9,29,0.00
2013-1-20,25.0,18.4,13.0,19.6,12.9,7.3,90,79,68,30.57,30.14,30,8,30,0.00
2013-1-21,19.0,13.1,7.7,14.6,9.4,5.1,96,85,71,30.51,30.31,15,3,16,0.00
2013-1-22,35.3,17.9,2.7,24.9,12.7,0.0,99,80,62,30.33,30.17,15,2,15,0.00
2013-1-23,19.7,15.6,10.8,15.1,11.8,7.7,89,85,77,30.50,30.20,24,4,24,0.00
2013-1-24,42.2,23.4,8.8,27.2,16.3,6.1,90,75,54,30.35,30.01,19,4,19,0.00
2013-1-25,50.1,35.2,21.3,30.5,24.6,16.5,84,67,41,30.20,29.98,14,3,14,0.00
2013-1-26,52.3,36.2,25.1,30.8,25.8,19.3,84,66,41,29.98,29.76,18,4,18,0.00
2013-1-27,48.4,37.8,28.8,33.7,29.8,23.2,96,74,51,29.80,29.63,24,5,24,0.00
2013-1-28,32.9,30.2,23.0,30.5,28.7,19.9,96,94,88,29.90,29.77,18,4,18,0.01
2013-1-29,35.0,23.6,6.3,26.3,18.4,1.7,91,81,62,30.19,29.78,35,9,35,0.02
2013-1-30,19.1,10.5,1.1,14.9,7.0,-2.9,93,85,80,30.17,29.98,29,3,29,0.00
2013-1-31,15.0,6.6,0.1,12.9,2.5,-4.3,91,83,74,30.51,30.09,26,8,30,0.00
2013-2-1,41.9,30.3,10.5,35.4,24.7,5.6,87,80,69,30.30,30.04,30,5,30,0.02
2013-2-2,46.9,38.5,25.4,29.9,25.6,19.8,83,61,44,30.25,30.12,42,10,42,0.01
2013-2-3,58.2,40.9,23.9,30.8,24.7,19.3,84,55,24,30.22,29.76,32,7,32,0.00
2013-2-4,50.4,37.7,22.5,30.0,25.8,19.0,88,64,40,29.95,29.78,26,5,26,0.00
2013-2-5,48.2,41.7,35.0,32.1,29.0,26.2,72,61,48,30.03,29.75,21,6,21,0.00
2013-2-6,50.9,36.9,25.1,32.0,25.6,19.6,84,65,42,30.08,29.72,30,5,30,0.00
2013-2-7,51.8,37.2,24.8,27.6,22.7,17.8,82,58,32,30.20,29.97,17,4,17,0.00
2013-2-8,42.3,33.6,22.4,27.1,23.3,18.9,89,67,49,29.97,29.85,21,4,21,0.00
2013-2-9,38.1,29.0,22.1,29.1,24.0,20.4,96,82,65,29.95,29.73,27,7,27,0.00
2013-2-10,31.7,27.7,20.3,27.7,22.2,13.0,96,80,68,30.14,29.68,39,18,39,0.00
2013-2-11,33.9,20.9,5.3,20.1,12.6,0.4,85,71,53,30.26,30.07,20,2,24,0.00
2013-2-12,46.1,33.4,15.4,26.1,18.9,8.8,77,56,41,30.10,29.87,26,6,26,0.00
2013-2-13,50.7,39.8,32.6,33.0,26.9,22.2,86,61,41,29.97,29.73,41,12,41,0.00
2013-2-14,34.3,28.0,15.6,24.8,19.1,9.4,87,70,52,30.43,29.97,43,14,43,0.00
2013-2-15,32.9,25.2,13.7,19.3,14.1,7.7,83,64,44,30.50,30.15,23,7,23,0.00
2013-2-16,55.6,42.9,27.6,31.6,26.9,15.9,74,54,39,30.15,29.77,30,9,30,0.00
2013-2-17,54.9,38.5,25.8,32.5,26.6,20.2,82,64,35,29.77,29.47,41,10,41,0.00
2013-2-18,33.8,26.8,14.3,25.7,18.5,9.4,83,71,59,30.29,29.74,40,16,40,0.00
2013-2-19,23.9,16.4,10.3,15.1,9.9,5.9,89,76,62,30.38,30.19,24,8,24,0.00
2013-2-20,33.4,22.4,12.4,20.7,13.8,5.9,83,70,51,30.19,29.96,27,11,27,0.00
2013-2-21,25.3,20.4,16.4,22.6,17.9,14.2,92,90,83,30.12,30.00,11,4,19,0.00
2013-2-22,37.4,25.0,15.1,29.2,20.4,13.1,92,83,65,30.10,29.86,18,3,18,0.01
2013-2-23,45.6,32.4,17.1,31.2,18.3,10.6,86,59,31,29.86,29.67,12,2,12,0.00
2013-2-24,35.3,31.2,21.6,32.4,26.6,15.3,95,83,69,30.20,29.81,32,11,32,0.02
2013-2-25,49.2,31.1,17.1,23.2,16.5,10.1,85,58,23,30.20,29.84,26,7,26,0.00
2013-2-26,43.9,30.5,15.6,32.7,24.0,9.5,93,77,53,30.17,29.85,37,12,37,0.02
2013-2-27,40.2,30.5,19.7,25.2,21.8,15.2,86,71,49,30.35,30.17,30,10,30,0.00
2013-2-28,44.6,28.4,11.0,32.3,21.4,8.4,96,76,49,30.38,30.23,22,2,22,0.00
2013-3-1,46.1,35.0,18.8,26.5,20.9,15.1,88,59,34,30.35,30.17,19,5,19,0.00
2013-3-2,60.9,46.2,29.4,36.1,30.0,22.1,81,55,36,30.19,29.82,26,5,26,0.00
2013-3-3,57.9,46.1,34.0,35.3,31.5,25.9,86,58,41,29.82,29.47,50,6,50,0.01
2013-3-4,34.7,26.4,16.8,26.3,16.1,6.4,89,66,38,30.34,29.67,48,18,48,0.00
2013-3-5,31.5,20.2,8.7,17.5,12.1,4.3,84,71,54,30.55,30.33,31,5,39,0.00
2013-3-6,48.3,30.2,13.4,26.9,19.0,9.0,87,66,38,30.37,29.79,25,6,25,0.00
2013-3-7,55.6,41.0,30.4,31.3,27.2,23.0,75,60,35,30.17,29.73,28,7,30,0.00
2013-3-8,42.4,33.6,24.0,30.6,27.1,21.1,92,77,61,30.17,29.91,15,3,15,0.00
2013-3-9,44.6,33.5,27.1,30.9,24.8,15.4,96,73,34,30.19,29.83,44,15,44,0.00
2013-3-10,41.9,29.8,17.7,21.0,14.8,8.5,89,57,30,30.35,30.03,27,9,27,0.00
2013-3-11,48.4,37.7,26.3,30.9,19.7,10.7,67,48,36,30.15,29.90,40,13,40,0.00
2013-3-12,40.6,31.0,23.8,16.8,10.5,5.3,60,43,30,30.36,30.15,36,13,36,0.00
2013-3-13,67.5,46.7,24.5,34.3,22.7,6.3,48,39,29,30.30,29.98,21,4,24,0.00
2013-3-14,73.7,56.7,39.7,38.0,33.8,29.4,68,44,27,30.16,29.83,20,3,20,0.00
2013-3-15,68.2,50.9,32.9,35.8,32.0,25.4,78,51,28,30.04,29.68,37,8,37,0.00
2013-3-16,32.9,29.2,23.6,29.2,26.0,22.6,97,88,74,30.14,30.01,17,6,17,0.00
2013-3-17,49.2,31.0,22.4,40.4,28.0,19.6,100,89,65,30.02,29.35,44,16,44,0.12
2013-3-18,38.6,26.6,14.8,19.9,12.5,6.8,85,58,28,30.08,29.83,32,12,32,0.00
2013-3-19,36.8,29.6,15.0,23.5,14.8,6.2,76,55,35,30.50,29.98,34,9,34,0.00
2013-3-20,48.3,30.7,14.5,22.4,15.1,6.7,73,54,34,30.49,29.85,30,9,30,0.00
2013-3-21,44.9,29.4,17.2,27.6,21.0,12.4,96,72,49,29.93,29.68,25,6,25,0.00
2013-3-22,34.1,25.1,14.3,31.5,23.7,12.4,98,94,82,30.20,29.89,28,5,28,0.04
2013-3-23,25.9,19.7,9.6,20.0,15.2,6.7,100,83,71,30.41,30.19,27,10,27,0.01
2013-3-24,21.5,15.5,7.4,16.3,11.5,4.8,91,84,73,30.50,30.34,32,11,32,0.00
2013-3-25,30.4,18.6,2.3,16.8,11.5,-0.4,89,75,52,30.56,30.34,18,3,20,0.01
2013-3-26,40.6,27.7,17.0,26.9,19.0,11.5,84,70,51,30.34,30.08,16,3,16,0.00
2013-3-27,53.9,36.1,17.6,33.2,24.1,15.1,91,65,34,30.20,30.08,13,2,13,0.00
2013-3-28,63.7,49.2,27.4,34.2,30.6,22.9,86,51,30,30.09,30.01,11,2,14,0.00
2013-3-29,69.3,54.1,38.6,38.7,33.7,28.7,73,48,27,30.07,29.84,23,5,23,0.00
2013-3-30,57.4,47.3,36.7,42.5,36.2,31.8,86,66,44,30.12,29.95,34,6,34,0.03
2013-3-31,49.9,38.7,30.8,35.5,28.7,22.3,89,69,39,30.24,29.93,23,5,24,0.00
2013-4-1,50.0,36.7,21.3,31.4,26.9,18.9,96,70,44,30.31,30.14,16,3,18,0.00
2013-4-2,57.4,42.2,22.1,32.0,26.4,18.0,86,57,35,30.22,30.06,18,4,18,0.00
2013-4-3,70.8,52.7,34.0,39.5,32.4,23.6,70,49,25,30.10,29.85,30,10,30,0.00
2013-4-4,54.4,42.7,30.8,31.5,27.2,21.1,84,56,36,30.19,30.01,18,5,18,0.00
2013-4-5,59.3,45.6,32.1,45.0,31.6,21.2,79,59,43,30.01,29.54,27,6,27,0.02
2013-4-6,65.2,54.7,41.3,44.5,37.7,32.8,90,56,34,29.74,29.63,30,9,32,0.00
2013-4-7,59.4,48.7,38.3,46.8,39.0,32.7,90,70,50,29.72,29.53,16,3,16,0.04
2013-4-8,43.6,32.0,16.4,42.4,30.4,14.6,97,94,82,30.29,29.54,35,10,35,0.02
2013-4-9,17.2,14.8,12.5,15.8,13.1,10.6,94,93,90,30.56,30.28,31,16,31,0.00
2013-4-10,25.8,21.8,17.2,24.8,20.0,15.8,100,93,88,30.45,30.07,21,9,26,0.00
2013-4-11,33.9,24.7,10.5,31.3,21.3,8.0,99,87,77,30.07,29.91,19,6,19,0.00
2013-4-12,38.1,32.4,22.6,34.7,29.7,21.1,96,90,79,30.06,29.92,30,6,30,0.02
2013-4-13,40.3,31.8,22.1,36.8,29.5,19.8,98,91,84,30.01,29.40,19,6,19,0.00
2013-4-14,37.6,31.4,23.0,33.8,28.0,19.0,99,88,70,29.88,29.41,39,14,39,0.03
2013-4-15,34.1,28.0,21.5,23.8,20.2,15.9,85,73,60,30.20,29.87,34,13,34,0.00
2013-4-16,29.9,27.0,22.2,27.4,23.9,18.3,96,88,77,30.36,30.15,13,3,13,0.01
2013-4-17,29.2,27.0,25.2,27.6,26.1,24.5,100,96,93,30.36,30.26,21,7,21,0.13
2013-4-18,35.9,27.4,21.7,25.6,22.3,19.3,97,82,60,30.28,30.09,29,11,29,0.00
2013-4-19,38.4,33.9,24.8,33.5,30.5,19.5,95,87,74,30.12,29.98,27,6,27,0.09
2013-4-20,53.2,40.4,29.9,42.5,34.5,26.9,92,80,63,30.01,29.86,29,5,29,0.04
2013-4-21,48.3,41.5,32.7,42.1,37.1,31.2,96,84,76,30.16,29.87,25,6,25,0.15
2013-4-22,32.8,26.3,18.7,31.8,23.9,14.2,98,91,79,30.53,30.13,23,4,23,0.15
2013-4-23,37.2,26.8,9.5,26.1,18.2,6.7,89,71,48,30.52,30.15,20,3,20,0.02
2013-4-24,44.4,37.0,28.0,32.8,26.7,20.5,86,66,48,30.19,30.07,35,10,35,0.00
2013-4-25,69.5,50.2,32.1,36.7,31.2,26.4,83,53,23,30.13,29.73,22,6,22,0.00
2013-4-26,71.2,51.0,35.3,38.2,33.2,28.1,76,53,27,30.07,29.88,16,4,16,0.00
2013-4-27,79.5,62.9,44.3,42.1,37.4,31.9,64,42,21,29.99,29.67,24,5,24,0.00
2013-4-28,68.0,57.9,48.0,46.6,40.1,34.1,91,54,38,29.88,29.60,33,10,33,0.05
2013-4-29,75.8,58.3,44.7,47.4,42.8,37.0,94,62,27,29.80,29.20,49,12,49,0.00
2013-4-30,52.6,46.1,35.7,40.2,29.8,23.6,82,54,39,30.18,29.51,27,12,35,0.00
2013-5-1,48.7,38.5,30.7,24.5,21.6,17.1,68,52,29,30.66,30.18,22,7,22,0.00
2013-5-2,55.7,40.8,25.5,27.5,22.3,16.7,70,50,30,30.68,30.36,16,4,19,0.00
2013-5-3,60.7,45.7,27.5,31.6,26.1,17.7,77,49,29,30.36,30.11,18,4,18,0.00
2013-5-4,56.9,44.6,27.6,26.2,21.7,15.9,70,42,27,30.27,30.19,17,3,17,0.00
2013-5-5,62.9,47.9,30.2,31.9,26.4,21.3,71,45,28,30.28,30.05,17,3,17,0.00
2013-5-6,69.8,53.8,32.7,37.1,31.9,25.2,76,47,28,30.12,29.86,17,4,17,0.00
2013-5-7,76.8,58.6,37.4,48.3,40.9,30.1,76,54,30,29.90,29.70,29,8,29,0.00
2013-5-8,72.8,59.2,40.8,49.6,44.2,38.2,96,61,33,29.99,29.74,20,6,20,0.00
2013-5-9,65.5,54.1,43.9,47.3,43.2,39.0,88,68,49,30.12,29.99,17,4,17,0.00
2013-5-10,75.8,57.7,40.7,51.5,41.5,27.0,90,59,29,30.25,29.99,36,6,38,0.01
2013-5-11,64.3,50.6,36.1,35.2,29.8,24.7,70,46,32,30.39,30.14,14,4,14,0.00
2013-5-12,76.0,60.6,42.5,44.2,37.4,29.0,63,44,31,30.16,29.78,20,5,20,0.00
2013-5-13,91.3,77.8,62.4,54.2,47.8,41.1,49,36,24,29.78,29.52,25,7,25,0.00
2013-5-14,78.4,70.3,54.2,53.5,46.6,37.9,60,44,31,29.79,29.46,31,9,31,0.00
2013-5-15,78.0,66.0,46.4,48.7,44.1,37.3,75,47,35,29.90,29.67,25,7,25,0.00
2013-5-16,73.0,64.6,59.9,60.5,51.5,45.7,90,64,45,29.71,29.58,26,8,26,0.18
2013-5-17,79.3,62.7,49.3,60.9,54.0,47.1,95,76,48,29.74,29.54,29,4,29,0.00
2013-5-18,71.8,62.4,55.0,59.7,55.9,49.4,93,80,65,29.70,29.57,22,5,23,0.23
2013-5-19,59.2,55.7,51.8,56.9,53.5,48.5,97,92,87,29.65,29.58,33,12,33,0.51
2013-5-20,52.2,50.0,47.6,50.1,47.9,45.5,95,92,87,29.82,29.51,47,23,47,0.57
2013-5-21,49.4,46.7,43.0,45.6,43.5,41.7,96,89,80,29.94,29.80,34,15,37,0.11
2013-5-22,55.7,49.7,44.8,49.0,46.3,43.7,97,88,71,30.12,29.91,20,7,20,0.01
2013-5-23,68.3,57.2,44.0,49.6,46.4,42.3,97,70,47,30.13,29.86,35,13,35,0.00
2013-5-24,78.5,65.9,56.8,60.7,55.2,48.9,84,69,52,29.86,29.68,38,13,38,0.00
2013-5-25,83.1,67.5,49.0,62.2,56.8,46.3,92,71,45,29.84,29.61,31,7,31,0.00
2013-5-26,70.0,60.5,53.0,63.9,58.3,52.7,99,93,73,29.87,29.60,22,6,22,0.07
2013-5-27,72.3,60.3,52.3,64.3,57.7,49.2,100,92,70,29.79,29.52,33,8,33,0.51
2013-5-28,76.0,62.0,46.3,56.7,49.5,42.2,95,67,33,29.70,29.50,20,4,20,0.00
2013-5-29,73.8,60.9,51.8,59.7,55.1,50.1,100,83,53,29.54,29.34,24,6,24,1.90
2013-5-30,64.4,57.4,53.2,57.7,52.5,44.5,100,85,66,29.42,29.22,37,6,37,0.12
2013-5-31,57.1,52.8,48.1,48.4,45.5,43.5,96,76,66,29.88,29.39,30,14,40,0.19
2013-6-1,62.9,53.6,44.4,46.9,44.1,40.5,96,72,47,30.12,29.87,38,14,38,0.08
2013-6-2,74.0,57.6,40.6,56.2,47.6,38.3,93,71,48,30.12,29.68,24,7,24,0.00
2013-6-3,70.9,60.4,51.4,57.1,50.5,45.5,93,72,44,29.82,29.44,33,8,33,0.00
2013-6-4,60.2,53.9,45.3,46.6,43.3,37.7,82,68,57,30.14,29.80,36,11,36,0.00
2013-6-5,61.6,54.6,46.6,47.5,44.4,41.1,82,69,56,30.16,30.03,24,9,25,0.00
2013-6-6,70.8,58.4,41.1,51.8,47.2,38.8,96,68,46,30.04,29.91,14,2,14,0.00
2013-6-7,81.3,66.4,51.3,60.0,53.6,45.9,87,66,39,29.97,29.53,21,5,21,0.08
2013-6-8,73.5,64.4,53.4,57.7,52.5,46.5,94,68,41,29.83,29.50,38,11,38,0.01
2013-6-9,77.2,64.3,48.4,56.5,51.4,44.7,88,65,44,29.85,29.64,18,4,18,0.00
2013-6-10,80.6,70.5,59.2,63.6,58.8,52.0,81,67,52,29.68,29.50,28,8,28,0.00
2013-6-11,74.7,66.9,57.8,65.9,60.0,54.1,95,79,65,29.81,29.64,33,6,33,0.36
2013-6-12,68.7,61.5,54.7,57.6,55.0,52.9,97,80,61,30.07,29.74,14,5,22,0.00
2013-6-13,73.0,64.4,53.2,61.0,55.9,50.6,92,75,59,30.08,29.66,33,10,33,0.00
2013-6-14,78.0,68.6,58.3,61.0,55.6,47.3,95,66,36,29.89,29.58,32,8,32,0.00
2013-6-15,76.7,66.1,55.8,55.2,49.4,38.5,81,58,33,29.94,29.82,18,3,18,0.00
2013-6-16,78.5,67.0,53.0,63.3,55.2,48.7,86,68,44,29.95,29.81,21,4,21,0.00
2013-6-17,73.0,64.8,57.7,60.1,55.0,52.3,86,71,50,29.99,29.91,13,2,16,0.00
2013-6-18,83.3,68.6,50.7,62.4,57.6,49.0,96,71,42,29.98,29.69,21,5,21,0.00
2013-6-19,86.5,75.1,61.5,66.4,60.3,52.6,80,61,42,29.69,29.36,41,12,41,0.01
2013-6-20,84.9,76.9,66.3,65.2,54.9,43.9,82,49,34,29.71,29.35,40,10,41,0.01
2013-6-21,71.8,65.8,61.7,65.6,62.7,60.1,98,90,75,29.83,29.61,21,6,21,0.19
2013-6-22,80.5,64.8,54.0,65.0,59.8,50.8,99,86,53,29.84,29.58,36,5,36,0.49
2013-6-23,78.8,65.9,52.9,59.2,53.8,48.5,94,68,41,29.85,29.64,17,5,18,0.00
2013-6-24,87.8,72.0,58.2,66.6,58.9,49.3,97,67,34,29.67,29.45,30,5,32,0.00
2013-6-25,84.6,75.1,61.6,62.7,56.4,47.8,83,53,34,29.69,29.39,35,9,35,0.00
2013-6-26,86.3,71.3,58.4,62.4,58.3,53.6,88,66,40,29.84,29.68,15,3,21,0.00
2013-6-27,88.7,75.8,60.1,63.7,59.2,55.2,85,59,38,29.98,29.84,21,4,21,0.00
2013-6-28,84.5,73.0,57.2,59.4,55.9,52.0,84,57,38,30.05,29.92,26,6,26,0.00
2013-6-29,80.9,71.0,59.3,58.8,54.2,49.0,86,58,34,30.02,29.92,21,4,21,0.00
2013-6-30,82.5,70.4,53.4,57.9,53.8,48.5,85,58,38,30.04,29.95,17,3,17,0.00
2013-7-1,82.0,71.9,61.5,59.2,56.3,50.4,85,60,41,30.09,29.99,19,5,19,0.00
2013-7-2,85.2,71.6,58.7,58.7,53.8,49.3,73,55,34,30.06,29.87,19,3,19,0.00
2013-7-3,93.6,76.0,60.6,56.4,53.7,51.5,73,49,27,29.88,29.59,25,4,25,0.00
2013-7-4,87.2,75.6,59.6,67.5,58.9,50.6,74,57,42,29.74,29.57,31,5,31,0.02
2013-7-5,85.7,73.9,66.8,66.5,62.9,60.4,94,70,44,29.67,29.53,19,3,23,0.04
2013-7-6,88.7,75.4,65.3,81.1,62.7,58.3,96,70,37,29.71,29.49,26,3,26,0.00
2013-7-7,84.8,73.1,64.2,65.4,61.8,57.2,91,69,47,29.87,29.69,25,5,25,0.01
2013-7-8,86.6,75.1,61.8,71.2,64.4,58.6,95,72,44,29.87,29.66,46,7,46,0.88
2013-7-9,84.0,72.1,57.9,62.0,58.9,55.8,94,66,41,30.03,29.78,21,5,21,0.00
2013-7-10,90.0,72.8,57.0,68.6,60.7,53.9,90,68,32,30.04,29.72,30,6,30,0.09
2013-7-11,99.8,83.0,69.3,69.3,63.9,55.1,82,55,25,29.78,29.47,28,10,28,0.00
2013-7-12,90.4,80.2,69.3,64.8,61.3,58.1,79,54,37,29.76,29.41,28,9,36,0.00
2013-7-13,93.8,79.9,65.9,67.8,64.4,60.0,82,61,40,29.79,29.66,23,5,23,0.00
2013-7-14,75.2,66.3,63.4,65.5,61.4,59.3,89,84,71,30.10,29.79,26,8,26,0.00
2013-7-15,88.3,75.5,64.8,69.3,64.6,58.6,94,71,46,30.06,29.74,29,9,29,0.00
2013-7-16,91.3,79.1,63.2,61.6,57.1,51.7,68,49,32,29.93,29.82,29,9,29,0.00
2013-7-17,92.2,80.7,66.3,64.8,61.7,59.3,80,54,37,29.96,29.76,29,9,29,0.00
2013-7-18,93.5,82.9,71.0,69.2,62.8,58.0,69,52,33,29.82,29.67,29,8,29,0.00
2013-7-19,90.5,75.5,64.6,67.0,61.4,54.9,89,63,33,29.92,29.70,27,4,27,0.16
2013-7-20,84.8,71.9,66.4,69.1,64.3,59.6,92,78,51,29.78,29.64,24,4,28,0.30
2013-7-21,90.8,77.4,63.6,66.9,63.5,56.6,97,66,38,29.75,29.50,36,9,37,0.03
2013-7-22,88.5,76.2,61.9,64.0,59.5,54.1,93,60,34,29.76,29.63,27,6,27,0.01
2013-7-23,85.3,72.1,60.2,66.5,62.4,57.5,92,74,47,29.87,29.67,28,4,28,0.03
2013-7-24,88.0,74.9,59.6,63.8,59.1,53.5,93,62,32,29.96,29.79,19,4,19,0.00
2013-7-25,82.2,71.2,59.4,62.9,58.2,53.7,95,66,42,30.06,29.72,39,7,39,0.13
2013-7-26,73.3,62.6,53.5,55.0,51.0,48.4,95,68,45,30.19,30.04,18,3,18,0.32
2013-7-27,74.8,63.5,51.5,56.2,50.9,46.3,88,65,47,30.12,29.85,25,6,25,0.00
2013-7-28,78.5,67.0,53.8,62.1,56.9,49.6,91,71,55,29.86,29.71,24,7,24,0.00
2013-7-29,84.0,71.7,59.4,62.2,58.9,56.5,94,67,41,29.91,29.71,23,6,25,0.00
2013-7-30,88.8,70.6,60.1,67.4,61.1,54.9,90,73,44,30.03,29.80,31,5,32,0.13
2013-7-31,83.6,71.6,57.4,63.7,57.1,53.1,92,63,39,30.11,29.93,24,4,24,0.00
2013-8-1,78.8,68.0,56.1,65.3,59.2,52.0,89,74,56,29.97,29.72,26,3,26,0.25
2013-8-2,79.8,66.4,58.8,64.8,59.4,55.7,95,80,47,29.98,29.69,23,7,23,0.08
2013-8-3,80.0,69.5,60.5,66.5,62.7,58.9,99,80,59,30.01,29.85,25,8,25,0.13
2013-8-4,86.9,73.9,64.9,68.0,65.1,62.8,95,76,48,29.90,29.72,22,6,22,0.00
2013-8-5,83.4,72.8,60.4,68.7,64.9,57.7,98,78,52,29.85,29.65,17,4,18,2.07
2013-8-6,81.2,67.8,59.8,63.8,57.5,54.0,100,73,43,30.04,29.67,21,6,27,0.18
2013-8-7,82.5,70.7,57.4,62.5,56.9,52.8,87,64,42,29.88,29.72,31,4,31,0.00
2013-8-8,80.3,68.5,57.9,60.9,58.6,55.8,94,73,48,29.94,29.81,16,4,16,0.00
2013-8-9,78.5,68.1,59.6,64.8,61.2,57.6,94,80,53,30.03,29.90,15,3,15,0.28
2013-8-10,80.3,70.6,62.8,66.8,63.0,60.5,94,78,55,30.00,29.83,16,3,16,0.00
2013-8-11,75.5,67.0,60.8,65.2,62.6,59.4,95,86,63,29.99,29.90,16,4,17,0.00
2013-8-12,77.7,66.5,56.4,67.7,62.3,55.6,97,87,63,30.00,29.91,11,1,11,0.00
2013-8-13,79.3,66.7,60.2,66.1,61.7,56.9,96,85,57,30.03,29.93,29,4,29,0.12
2013-8-14,76.7,65.5,54.6,63.8,59.5,53.7,98,82,58,30.03,29.88,15,3,15,0.01
2013-8-15,74.0,65.9,60.1,65.1,61.5,58.1,98,86,67,29.99,29.85,14,3,14,0.00
2013-8-16,85.3,70.4,58.5,67.4,62.7,57.4,98,79,48,30.23,29.83,17,4,21,0.01
2013-8-17,90.2,75.4,56.4,69.1,63.6,53.9,94,69,43,29.87,29.70,19,4,19,0.00
2013-8-18,86.0,73.6,59.7,69.1,64.5,57.6,95,74,45,29.85,29.69,26,5,26,0.00
2013-8-19,90.2,77.1,59.1,66.0,59.8,51.2,89,59,30,29.83,29.66,23,4,23,0.00
2013-8-20,92.9,71.7,60.4,66.8,59.2,54.6,89,67,34,29.72,29.61,17,1,17,0.00
2013-8-21,83.1,72.3,65.0,61.9,57.9,53.4,78,61,42,29.93,29.71,20,4,20,0.00
2013-8-22,82.5,70.5,57.2,65.2,61.4,55.1,94,74,48,30.05,29.87,20,5,20,0.00
2013-8-23,91.3,76.9,65.3,69.1,64.6,61.6,93,69,38,29.87,29.57,31,11,31,0.00
2013-8-24,98.0,83.4,69.9,64.1,60.1,54.8,73,49,25,29.68,29.53,22,5,22,0.00
2013-8-25,93.9,77.1,66.0,66.0,61.6,58.2,77,60,32,29.81,29.67,14,2,19,0.00
2013-8-26,99.0,82.5,67.8,65.5,61.0,55.7,82,52,26,29.75,29.63,13,2,13,0.00
2013-8-27,99.8,82.2,65.8,66.6,60.2,56.2,80,52,25,29.75,29.58,21,5,21,0.00
2013-8-28,89.8,76.9,66.6,71.8,67.0,58.1,92,73,44,29.85,29.69,37,7,37,0.00
2013-8-29,92.5,82.4,68.4,64.7,58.2,51.5,68,45,32,29.86,29.63,25,7,25,0.00
2013-8-30,90.8,76.0,62.2,69.9,63.3,56.3,83,66,45,29.88,29.67,25,7,25,0.16
2013-8-31,85.0,75.7,60.3,62.6,54.7,45.7,78,50,32,29.93,29.66,34,10,34,0.01
2013-9-1,85.5,68.7,51.2,53.2,48.4,43.6,77,51,30,30.01,29.88,14,2,14,0.00
2013-9-2,92.0,74.9,56.0,61.9,54.9,49.5,81,53,28,29.93,29.71,22,5,22,0.00
2013-9-3,91.7,78.3,68.6,65.6,61.6,57.5,77,58,40,29.82,29.66,20,4,20,0.00
2013-9-4,91.7,76.7,63.8,66.0,63.1,59.9,88,65,41,29.91,29.81,13,2,13,0.00
2013-9-5,91.2,80.0,67.0,68.0,65.2,63.1,88,62,45,29.92,29.72,14,3,20,0.00
2013-9-6,89.3,77.9,64.5,68.6,64.5,59.5,87,65,47,29.79,29.70,30,3,30,0.00
2013-9-7,95.0,80.4,66.5,68.7,64.4,60.2,88,61,33,29.83,29.68,24,5,24,0.00
2013-9-8,82.7,71.1,64.0,67.9,64.6,61.4,95,81,58,29.82,29.60,34,4,34,0.55
2013-9-9,75.7,68.6,62.3,63.8,59.8,55.7,92,75,52,29.82,29.56,24,5,24,0.00
2013-9-10,79.0,66.2,56.4,58.2,55.0,51.4,90,69,45,30.01,29.81,19,3,19,0.00
2013-9-11,83.4,67.7,54.8,58.7,52.7,45.1,90,63,29,30.10,30.00,13,1,14,0.00
2013-9-12,80.1,66.2,52.5,55.1,51.2,48.3,88,61,37,30.22,30.05,18,4,18,0.00
2013-9-13,71.3,63.6,55.5,60.5,54.9,47.8,87,74,57,30.07,29.73,32,10,32,0.00
2013-9-14,80.0,68.0,60.2,62.7,60.3,58.1,94,78,51,29.88,29.62,33,8,33,0.01
2013-9-15,70.2,60.0,53.1,58.3,54.3,50.3,95,83,52,30.19,29.88,17,6,17,0.03
2013-9-16,69.5,60.1,51.4,56.5,53.6,49.5,93,80,63,30.16,29.78,37,12,37,0.00
2013-9-17,91.5,72.9,52.7,60.5,54.8,50.1,94,59,27,29.78,29.43,25,6,25,0.00
2013-9-18,92.3,71.7,59.3,56.7,52.2,45.3,78,54,22,29.67,29.37,33,6,33,0.00
2013-9-19,62.9,55.9,42.7,47.5,42.5,37.9,84,62,46,30.12,29.66,31,10,31,0.00
2013-9-20,73.2,54.9,37.0,44.1,39.7,33.0,88,61,33,30.13,29.87,15,2,15,0.00
2013-9-21,91.2,67.0,46.7,45.9,40.5,35.7,67,43,16,29.87,29.45,20,3,20,0.00
2013-9-22,91.6,70.8,56.0,57.6,46.7,38.2,91,45,23,29.45,29.23,31,4,31,0.11
2013-9-23,63.5,58.2,49.3,57.9,54.8,48.5,97,88,76,29.87,29.24,36,8,36,0.44
2013-9-24,75.4,59.7,41.9,51.9,45.2,40.0,97,63,33,29.97,29.63,21,7,29,0.01
2013-9-25,81.2,65.3,54.5,52.0,47.9,43.8,83,55,33,29.63,29.26,30,11,30,0.00
2013-9-26,64.7,56.1,49.7,51.0,46.2,39.2,91,71,53,29.82,29.39,26,9,26,0.00
2013-9-27,49.6,45.1,41.9,40.7,39.8,38.7,91,82,69,29.96,29.78,21,9,23,0.10
2013-9-28,70.4,54.1,39.3,39.5,37.0,33.2,92,57,28,29.94,29.81,18,4,25,0.00
2013-9-29,81.3,62.9,40.6,44.8,39.8,35.5,83,47,23,29.82,29.50,24,4,24,0.00
2013-9-30,86.7,64.3,47.3,49.7,41.7,32.6,73,47,23,29.69,29.31,45,8,45,0.02
2013-10-1,69.9,58.1,38.2,40.0,33.6,27.7,67,41,25,29.98,29.65,25,6,25,0.00
2013-10-2,63.2,57.0,50.8,41.7,37.0,31.5,60,47,38,29.93,29.62,39,10,39,0.00
2013-10-3,52.0,47.8,40.3,44.7,41.3,37.4,94,79,60,30.07,29.86,23,6,26,0.89
2013-10-4,40.6,36.7,32.9,38.4,35.0,31.6,96,94,92,30.12,30.02,31,14,31,0.87
2013-10-7,59.8,54.4,52.3,43.6,41.5,36.4,69,62,42,29.74,29.60,21,10,21,0.00
2013-10-8,63.9,53.3,40.9,40.7,36.6,33.8,77,55,34,29.83,29.52,21,3,21,0.00
2013-10-9,56.8,48.8,39.9,37.6,35.7,33.8,81,61,43,30.03,29.82,12,4,14,0.00
2013-10-10,58.4,46.2,36.5,48.2,41.5,33.3,96,84,65,29.93,29.43,11,1,13,0.14
2013-10-11,52.4,46.4,41.3,47.0,40.2,31.2,97,80,58,29.97,29.29,52,16,52,1.34
2013-10-12,53.6,44.4,33.4,38.6,33.0,28.1,86,65,45,30.24,29.96,11,2,11,0.00
2013-10-13,59.6,46.4,34.1,46.9,39.3,31.5,91,77,59,30.25,29.94,19,2,19,0.00
2013-10-14,50.5,41.1,33.4,42.4,38.8,32.1,96,92,67,30.11,29.83,40,15,40,2.07
2013-10-15,42.8,37.6,32.0,35.1,32.8,28.5,97,84,69,30.33,30.14,34,10,35,0.66
2013-10-16,55.4,41.2,29.6,34.0,29.3,25.1,88,65,35,30.21,29.93,18,2,18,0.00
2013-10-17,44.4,38.3,32.1,37.3,30.2,24.8,87,73,53,30.20,29.95,32,10,32,0.00
2013-10-18,43.5,37.9,32.4,36.6,30.4,27.0,91,75,57,30.19,29.92,26,6,26,0.04
2013-10-19,63.2,50.1,36.9,39.3,34.1,29.7,82,56,36,29.94,29.72,22,4,22,0.00
2013-10-20,53.8,42.1,39.7,39.8,36.7,34.4,90,82,52,30.08,29.70,26,5,31,0.15
2013-10-21,54.5,45.2,34.0,44.3,38.9,31.5,93,79,59,30.08,29.91,33,6,33,0.02
2013-10-22,52.5,47.6,42.5,43.5,40.3,34.9,88,77,53,30.07,29.94,24,5,24,0.01
2013-10-23,52.9,45.1,34.6,42.3,38.8,32.5,92,79,65,30.33,29.93,25,8,25,0.00
2013-10-24,49.9,39.6,33.3,39.5,35.1,30.8,96,85,65,30.37,30.18,15,2,15,0.00
2013-10-25,69.5,51.4,32.1,45.1,38.9,29.5,93,66,36,30.18,29.93,27,5,27,0.00
2013-10-26,58.5,46.7,33.6,37.5,32.7,27.4,80,59,41,30.29,29.94,16,3,18,0.00
2013-10-27,47.9,41.3,38.9,34.3,31.5,29.8,79,68,59,29.94,29.82,6,2,6,0.00
2013-10-28,36.3,28.3,26.2,29.8,26.4,24.6,95,93,77,30.40,30.13,14,4,20,0.00
2013-10-29,31.0,28.6,26.3,29.5,27.4,25.1,96,95,93,30.37,30.05,12,3,12,0.00
2013-10-30,40.7,33.2,30.0,37.5,32.2,29.1,98,96,86,30.05,29.75,20,2,20,0.11
2013-10-31,52.6,42.6,29.4,38.0,32.6,26.4,95,70,48,29.78,29.63,31,7,31,0.00
2013-11-1,49.8,43.4,30.8,38.7,30.8,23.6,85,62,42,30.14,29.71,45,14,45,0.04
2013-11-2,58.9,44.7,31.8,35.0,30.0,24.1,74,58,37,30.15,29.46,27,6,27,0.00
2013-11-3,54.0,46.2,38.3,36.8,32.7,27.6,78,60,41,29.82,29.43,31,6,31,0.00
2013-11-4,46.4,37.0,28.6,28.7,26.8,24.1,84,67,45,30.15,29.81,15,2,15,0.00
2013-11-5,33.2,28.2,20.0,29.3,26.5,15.9,96,93,81,30.25,30.13,18,2,18,0.11
2013-11-6,46.7,31.2,17.3,33.9,25.2,13.7,91,79,50,30.37,30.17,21,1,21,0.06
2013-11-7,46.2,34.7,22.3,36.3,28.7,19.3,91,80,49,30.44,29.76,24,5,24,0.00
2013-11-8,54.5,46.0,37.4,38.6,31.2,26.7,85,58,36,29.94,29.58,41,9,41,0.01
2013-11-9,47.1,39.5,29.1,34.8,29.4,24.1,83,68,50,30.36,29.94,23,4,23,0.00
2013-11-10,57.4,41.4,29.1,36.8,30.7,25.2,94,67,44,30.28,30.06,22,4,22,0.00
2013-11-11,28.4,20.3,16.9,25.5,16.5,14.1,89,85,76,30.85,30.27,22,4,22,0.00
2013-11-12,51.9,32.5,12.3,38.6,25.3,9.9,98,76,55,30.78,30.19,19,2,21,0.01
2013-11-13,62.8,45.2,26.8,41.5,32.4,22.4,86,64,33,30.20,29.92,17,2,17,0.01
2013-11-14,56.1,43.7,32.0,41.6,32.4,27.1,86,66,35,30.04,29.74,20,2,20,0.01
2013-11-15,51.5,37.0,26.6,37.1,29.9,23.6,91,76,55,29.74,29.38,10,1,10,0.00
2013-11-16,46.7,35.3,25.9,35.2,29.3,22.8,91,79,59,29.42,29.27,9,1,9,0.00
2013-11-17,45.9,35.8,26.0,32.2,23.7,17.4,91,64,34,30.08,29.39,37,8,37,0.00
2013-11-18,56.0,40.1,26.5,29.4,23.4,17.5,71,53,33,30.14,29.82,19,4,19,0.00
2013-11-19,63.9,44.7,33.4,35.9,28.2,24.3,73,54,27,29.82,29.50,20,1,20,0.00
2013-11-20,39.4,27.0,12.9,27.5,20.1,5.2,87,75,61,30.50,29.64,33,9,33,0.00
2013-11-21,18.2,12.9,10.0,5.9,4.5,2.7,76,69,56,30.85,30.50,29,7,29,0.00
2013-11-22,38.4,23.1,10.0,13.0,5.1,-5.0,79,48,24,30.85,30.65,25,4,25,0.00
2013-11-23,33.4,21.7,11.3,17.2,12.2,6.3,90,68,46,30.89,30.38,22,5,23,0.00
2013-11-24,53.9,38.1,25.4,26.5,19.4,10.5,67,47,34,30.38,29.93,27,8,27,0.00
2013-11-25,40.9,36.0,29.4,24.1,18.5,14.2,66,49,36,30.36,30.07,30,8,30,0.00
2013-11-26,34.5,26.7,21.6,19.0,17.0,14.9,81,67,46,30.58,30.29,24,5,24,0.00
2013-11-27,56.7,35.7,20.6,27.7,21.4,15.4,82,60,25,30.29,29.94,31,7,31,0.00
2013-11-28,30.9,23.3,17.7,23.0,18.9,13.9,90,83,69,30.44,30.19,17,2,17,0.00
2013-11-29,59.2,35.7,19.1,35.3,22.7,14.9,86,63,26,30.20,30.02,14,1,14,0.00
2013-11-30,47.6,38.0,23.9,27.2,24.6,17.0,76,59,43,30.22,30.03,21,2,21,0.00
2013-12-1,56.4,42.8,32.4,32.1,27.6,23.7,72,56,35,30.10,29.63,17,2,21,0.00
2013-12-2,50.2,39.3,29.1,36.4,30.6,22.8,91,72,51,29.65,29.50,20,3,20,0.01
2013-12-3,29.8,15.5,8.2,27.5,12.1,4.0,92,86,83,30.14,29.59,27,9,27,0.00
2013-12-4,8.2,5.2,1.2,4.1,-1.5,-9.1,83,74,61,30.45,30.09,37,18,37,0.00
2013-12-5,5.3,-2.0,-10.5,-4.4,-10.1,-16.0,77,68,56,30.70,30.42,16,3,21,0.00
2013-12-6,-1.9,-8.0,-13.3,-9.7,-14.2,-19.0,77,74,65,30.90,30.69,11,2,11,0.00
2013-12-7,-6.1,-9.2,-12.4,-11.4,-15.0,-18.4,78,75,72,30.88,30.41,12,2,12,0.00
2013-12-8,8.3,-1.4,-9.1,-1.0,-8.5,-15.1,78,71,61,30.44,30.25,17,2,17,0.00
2013-12-9,28.7,9.7,-13.0,16.6,1.4,-18.6,90,70,47,30.45,30.06,39,7,39,0.00
2013-12-10,31.9,15.7,-1.3,23.3,10.2,-7.1,90,78,62,30.59,30.03,27,6,27,0.00
2013-12-11,27.4,12.2,-3.4,16.4,5.5,-8.3,84,75,61,30.60,30.38,15,2,15,0.00
2013-12-12,43.4,27.2,10.0,24.4,15.1,2.1,75,61,35,30.39,29.92,12,1,12,0.00
2013-12-13,27.8,19.2,14.6,20.6,14.8,10.0,90,83,72,30.29,29.92,9,1,9,0.00
2013-12-14,44.2,29.0,10.4,28.2,20.6,7.1,88,72,47,30.36,30.03,9,0,9,0.00
2013-12-15,53.4,44.2,33.4,31.5,26.8,22.9,65,51,36,30.03,29.85,19,3,19,0.00
2013-12-16,41.7,32.5,21.3,29.8,25.4,18.3,89,75,56,30.27,29.90,18,2,18,0.00
2013-12-17,44.6,35.4,24.6,29.3,24.2,17.3,81,64,43,30.39,29.81,28,7,28,0.00
2013-12-18,53.1,39.9,28.5,30.6,24.5,20.7,86,56,36,29.88,29.70,18,2,18,0.00
2013-12-19,29.1,12.4,-3.2,25.7,9.0,-8.0,91,86,80,30.33,29.87,19,7,19,0.00
2013-12-20,14.5,3.8,-11.2,10.8,-0.3,-16.6,86,83,77,30.34,29.92,26,2,26,0.00
2013-12-21,13.6,8.0,-0.7,10.2,4.3,-5.2,86,84,81,30.21,29.87,11,1,11,0.00
2013-12-22,11.5,6.6,1.1,8.0,2.6,-3.5,86,83,81,30.64,30.20,16,2,16,0.00
2013-12-23,18.5,3.3,-9.7,13.8,-1.1,-14.7,84,81,78,30.71,30.14,21,3,21,0.00
2013-12-24,37.6,30.0,13.3,34.8,24.0,9.1,92,79,57,30.28,30.02,31,7,31,0.16
2013-12-25,36.4,29.7,21.0,23.6,19.6,13.1,82,66,54,30.41,30.12,23,4,23,0.00
2013-12-26,48.9,37.9,20.7,30.2,23.9,11.8,74,57,41,30.26,30.06,25,5,25,0.00
2013-12-27,57.1,41.6,31.5,38.1,30.0,24.1,81,64,42,30.18,29.80,14,2,14,0.00
2013-12-28,48.0,24.2,5.8,29.4,14.3,-0.4,78,66,43,30.60,29.75,46,13,46,0.01
2013-12-29,26.2,14.3,3.6,21.8,7.6,-1.4,90,75,61,30.64,30.04,28,4,28,0.00
2013-12-30,37.9,31.1,23.4,28.6,24.0,19.3,86,75,63,30.21,29.98,33,10,33,0.00
2013-12-31,31.1,18.7,9.5,23.6,14.2,5.7,96,82,70,30.28,29.91,18,4,18,0.00
2014-1-1,28.8,20.1,9.2,24.9,15.9,5.6,90,83,71,30.47,30.26,29,4,29,0.00
2014-1-2,34.1,24.3,15.4,24.9,19.1,11.7,86,80,68,30.39,29.90,22,3,22,0.00